createdAt,value
2022-08-17T00:00:43.100Z,100571.06
2022-08-17T00:03:23.067Z,100571.19
2022-08-17T00:05:54.914Z,100562.16
2022-08-17T00:08:32.066Z,100566.91
2022-08-17T00:11:01.669Z,100557.75
2022-08-17T00:13:34.340Z,100550.88
2022-08-17T00:16:06.024Z,100553.75
2022-08-17T00:18:57.452Z,100573.19
2022-08-17T00:21:25.477Z,100577.19
2022-08-17T00:23:54.564Z,100583.06
2022-08-17T00:26:43.578Z,100577.31
2022-08-17T00:29:19.638Z,100584.13
2022-08-17T00:31:48.393Z,100608.59
2022-08-17T00:34:16.779Z,100622.00
2022-08-17T00:36:44.933Z,100625.00
2022-08-17T00:39:13.413Z,100631.78
2022-08-17T00:41:42.442Z,100628.97
2022-08-17T00:44:12.294Z,100616.53
2022-08-17T00:46:44.332Z,100625.28
2022-08-17T00:49:14.306Z,100626.56
2022-08-17T00:51:46.596Z,100633.66
2022-08-17T00:54:19.906Z,100645.25
2022-08-17T00:56:51.323Z,100635.69
2022-08-17T00:59:23.108Z,100650.38
2022-08-17T01:01:53.468Z,100625.94
2022-08-17T01:04:23.563Z,100604.69
2022-08-17T01:06:52.725Z,100532.00
2022-08-17T01:09:21.983Z,100532.31
2022-08-17T01:11:52.390Z,100551.00
2022-08-17T01:14:21.572Z,100534.03
2022-08-17T01:16:51.322Z,100551.28
2022-08-17T01:19:24.736Z,100523.22
2022-08-17T01:22:08.216Z,100522.38
2022-08-17T01:24:38.977Z,100522.81
2022-08-17T01:27:10.297Z,100515.59
2022-08-17T01:29:42.296Z,100528.31
2022-08-17T01:32:11.123Z,100519.19
2022-08-17T01:34:43.704Z,100500.81
2022-08-17T01:37:20.389Z,100528.41
2022-08-17T01:39:54.257Z,100532.53
2022-08-17T01:42:26.266Z,100535.41
2022-08-17T01:44:59.290Z,100538.44
2022-08-17T01:47:27.458Z,100520.72
2022-08-17T01:49:57.746Z,100555.28
2022-08-17T01:52:25.928Z,100528.53
2022-08-17T01:54:56.051Z,100539.38
2022-08-17T01:57:23.991Z,100555.34
2022-08-17T01:59:52.271Z,100527.56
2022-08-17T02:02:30.557Z,100544.03
2022-08-17T02:05:00.370Z,100534.50
2022-08-17T02:07:29.009Z,100537.81
2022-08-17T02:09:58.521Z,100534.03
2022-08-17T02:12:39.191Z,100540.25
2022-08-17T02:15:09.397Z,100533.94
2022-08-17T02:17:40.581Z,100530.38
2022-08-17T02:20:11.266Z,100547.00
2022-08-17T02:22:42.044Z,100532.56
2022-08-17T02:25:14.126Z,100530.75
2022-08-17T02:27:42.136Z,100530.97
2022-08-17T02:31:01.909Z,100522.22
2022-08-17T02:33:04.255Z,100526.53
2022-08-17T02:35:34.538Z,100518.81
2022-08-17T02:38:02.634Z,100522.97
2022-08-17T02:40:35.781Z,100510.22
2022-08-17T02:43:04.964Z,100536.00
2022-08-17T02:45:33.891Z,100526.75
2022-08-17T02:48:01.912Z,100518.72
2022-08-17T02:50:30.483Z,100513.94
2022-08-17T02:53:02.538Z,100507.44
2022-08-17T02:55:34.632Z,100509.81
2022-08-17T02:58:03.807Z,100524.88
2022-08-17T03:00:35.022Z,100528.19
2022-08-17T03:03:05.162Z,100528.13
2022-08-17T03:05:35.022Z,100520.75
2022-08-17T03:08:03.291Z,100508.53
2022-08-17T03:10:33.217Z,100511.09
2022-08-17T03:13:01.656Z,100492.72
2022-08-17T03:15:32.206Z,100518.50
2022-08-17T03:18:01.451Z,100511.31
2022-08-17T03:20:32.979Z,100500.22
2022-08-17T03:23:02.911Z,100511.16
2022-08-17T03:25:35.686Z,100519.16
2022-08-17T03:28:05.103Z,100506.00
2022-08-17T03:30:33.830Z,100498.81
2022-08-17T03:33:05.015Z,100501.50
2022-08-17T03:35:36.441Z,100500.88
2022-08-17T03:38:05.651Z,100518.31
2022-08-17T03:40:57.135Z,100512.44
2022-08-17T03:43:23.906Z,100520.22
2022-08-17T03:46:28.809Z,100519.81
2022-08-17T03:49:15.479Z,100514.09
2022-08-17T03:52:00.851Z,100509.38
2022-08-17T03:54:46.398Z,100519.16
2022-08-17T03:57:16.385Z,100512.19
2022-08-17T03:59:45.078Z,100521.31
2022-08-17T04:02:18.480Z,100510.94
2022-08-17T04:04:46.605Z,100506.88
2022-08-17T04:07:15.685Z,100503.44
2022-08-17T04:09:44.922Z,100507.97
2022-08-17T04:12:13.597Z,100490.28
2022-08-17T04:14:53.107Z,100484.31
2022-08-17T04:17:24.609Z,100502.38
2022-08-17T04:19:53.389Z,100503.22
2022-08-17T04:22:32.068Z,100516.84
2022-08-17T04:25:06.379Z,100520.38
2022-08-17T04:27:34.701Z,100517.56
2022-08-17T04:30:07.069Z,100524.22
2022-08-17T04:33:04.769Z,100528.34
2022-08-17T04:35:37.263Z,100515.00
2022-08-17T04:38:05.372Z,100529.56
2022-08-17T04:40:50.913Z,100550.75
2022-08-17T04:43:21.615Z,100540.69
2022-08-17T04:45:56.126Z,100548.38
2022-08-17T04:48:29.727Z,100548.50
2022-08-17T04:51:07.361Z,100531.88
2022-08-17T04:53:35.541Z,100556.16
2022-08-17T04:56:03.799Z,100545.91
2022-08-17T04:58:31.824Z,100532.09
2022-08-17T05:01:01.534Z,100525.56
2022-08-17T05:03:31.088Z,100514.72
2022-08-17T05:06:04.902Z,100529.78
2022-08-17T05:08:32.920Z,100520.72
2022-08-17T05:11:01.469Z,100534.53
2022-08-17T05:13:30.711Z,100533.31
2022-08-17T05:16:09.124Z,100524.56
2022-08-17T05:18:39.648Z,100524.31
2022-08-17T05:21:08.148Z,100531.78
2022-08-17T05:26:42.259Z,100504.34
2022-08-17T05:29:10.676Z,100500.88
2022-08-17T05:31:40.227Z,100534.47
2022-08-17T05:34:08.334Z,100517.13
2022-08-17T05:36:42.798Z,100529.75
2022-08-17T05:39:16.657Z,100527.50
2022-08-17T05:41:48.252Z,100535.78
2022-08-17T05:44:17.110Z,100544.53
2022-08-17T05:46:50.126Z,100531.69
2022-08-17T05:49:23.859Z,100517.97
2022-08-17T05:52:10.752Z,100521.56
2022-08-17T05:54:53.210Z,100531.44
2022-08-17T05:57:47.473Z,100523.91
2022-08-17T06:00:30.413Z,100519.63
2022-08-17T06:03:16.892Z,100533.47
2022-08-17T06:05:55.294Z,100527.25
2022-08-17T06:08:33.301Z,100516.59
2022-08-17T06:11:09.150Z,100516.97
2022-08-17T06:13:51.065Z,100530.81
2022-08-17T06:16:34.518Z,100539.50
2022-08-17T06:19:14.245Z,100535.50
2022-08-17T06:21:45.800Z,100543.34
2022-08-17T06:24:24.857Z,100511.44
2022-08-17T06:26:55.287Z,100529.03
2022-08-17T06:29:39.827Z,100516.69
2022-08-17T06:32:12.650Z,100548.72
2022-08-17T06:34:44.374Z,100531.28
2022-08-17T06:37:40.651Z,100517.53
2022-08-17T06:40:29.085Z,100524.47
2022-08-17T06:43:22.425Z,100532.16
2022-08-17T06:45:58.606Z,100509.13
2022-08-17T06:48:33.057Z,100538.78
2022-08-17T06:51:08.723Z,100525.94
2022-08-17T06:53:51.551Z,100558.47
2022-08-17T06:56:54.362Z,100521.06
2022-08-17T06:59:36.300Z,100538.06
2022-08-17T07:02:52.458Z,100558.06
2022-08-17T07:05:23.431Z,100546.72
2022-08-17T07:08:03.951Z,100543.06
2022-08-17T07:10:44.852Z,100569.06
2022-08-17T07:13:21.249Z,100551.84
2022-08-17T07:15:56.502Z,100559.38
2022-08-17T07:18:27.611Z,100570.03
2022-08-17T07:21:01.260Z,100569.59
2022-08-17T07:23:37.838Z,100568.88
2022-08-17T07:26:06.740Z,100568.66
2022-08-17T07:28:36.833Z,100570.00
2022-08-17T07:31:05.672Z,100589.06
2022-08-17T07:33:36.813Z,100599.03
2022-08-17T07:36:05.887Z,100611.16
2022-08-17T07:38:36.167Z,100618.47
2022-08-17T07:41:06.641Z,100626.03
2022-08-17T07:43:37.765Z,100632.16
2022-08-17T07:46:36.160Z,100646.84
2022-08-17T07:49:23.827Z,100664.19
2022-08-17T07:52:00.065Z,100668.16
2022-08-17T07:54:48.369Z,100680.59
2022-08-17T07:57:35.257Z,100692.97
2022-08-17T08:00:23.799Z,100696.50
2022-08-17T08:03:13.284Z,100715.53
2022-08-17T08:05:51.111Z,100721.97
2022-08-17T08:08:29.125Z,100742.34
2022-08-17T08:11:30.672Z,100743.47
2022-08-17T08:14:21.649Z,100762.44
2022-08-17T08:17:00.941Z,100773.72
2022-08-17T08:19:31.456Z,100788.81
2022-08-17T08:22:06.828Z,100799.97
2022-08-17T08:24:51.962Z,100807.47
2022-08-17T08:27:32.797Z,100804.47
2022-08-17T08:30:06.307Z,100802.63
2022-08-17T08:32:50.391Z,100814.09
2022-08-17T08:35:26.757Z,100811.56
2022-08-17T08:38:03.176Z,100817.78
2022-08-17T08:40:44.652Z,100813.06
2022-08-17T08:43:24.434Z,100840.75
2022-08-17T08:45:59.119Z,100864.50
2022-08-17T08:48:57.840Z,100889.84
2022-08-17T08:51:36.649Z,100908.91
2022-08-17T08:54:15.185Z,100906.56
2022-08-17T08:57:21.588Z,100891.75
2022-08-17T08:59:58.222Z,100870.38
2022-08-17T09:02:53.124Z,100866.59
2022-08-17T09:05:32.370Z,100852.75
2022-08-17T09:08:08.046Z,100858.66
2022-08-17T09:11:00.380Z,100865.25
2022-08-17T09:13:36.940Z,100862.44
2022-08-17T09:16:16.408Z,100885.16
2022-08-17T09:19:02.862Z,100890.94
2022-08-17T09:21:48.423Z,100872.00
2022-08-17T09:24:24.041Z,100880.97
2022-08-17T09:26:58.980Z,100885.25
2022-08-17T09:29:30.522Z,100879.41
2022-08-17T09:32:03.766Z,100882.38
2022-08-17T09:34:38.033Z,100872.78
2022-08-17T09:37:23.218Z,100868.53
2022-08-17T09:40:06.407Z,100863.41
2022-08-17T09:42:41.187Z,100853.00
2022-08-17T09:45:31.987Z,100848.75
2022-08-17T09:48:07.290Z,100852.69
2022-08-17T09:51:03.224Z,100867.28
2022-08-17T09:53:38.097Z,100867.28
2022-08-17T09:56:18.606Z,100845.34
2022-08-17T09:59:10.192Z,100843.88
2022-08-17T10:01:44.809Z,100853.13
2022-08-17T10:04:33.288Z,100847.06
2022-08-17T10:07:08.298Z,100853.38
2022-08-17T10:09:57.966Z,100853.13
2022-08-17T10:12:38.950Z,100842.78
2022-08-17T10:15:27.882Z,100848.03
2022-08-17T10:18:15.274Z,100853.91
2022-08-17T10:20:50.947Z,100858.03
2022-08-17T10:23:43.965Z,100856.56
2022-08-17T10:26:18.541Z,100871.69
2022-08-17T10:28:53.548Z,100859.34
2022-08-17T10:31:36.257Z,100857.66
2022-08-17T10:34:34.169Z,100868.78
2022-08-17T10:37:35.257Z,100872.69
2022-08-17T10:40:29.929Z,100873.44
2022-08-17T10:43:05.860Z,100893.00
2022-08-17T10:46:10.432Z,100879.31
2022-08-17T10:48:42.613Z,100867.75
2022-08-17T10:51:13.631Z,100901.75
2022-08-17T10:54:12.347Z,100951.00
2022-08-17T10:56:57.162Z,100938.00
2022-08-17T11:00:18.524Z,100953.75
2022-08-17T11:02:52.337Z,100947.81
2022-08-17T11:05:53.947Z,100961.84
2022-08-17T11:08:54.317Z,100972.16
2022-08-17T11:11:53.749Z,100954.41
2022-08-17T11:14:43.227Z,100948.19
2022-08-17T11:17:26.469Z,100917.22
2022-08-17T11:20:23.775Z,100924.22
2022-08-17T11:23:12.104Z,100936.03
2022-08-17T11:25:43.755Z,100954.75
2022-08-17T11:31:41.801Z,100212.59
2022-08-17T11:34:20.158Z,99432.41
2022-08-17T11:37:45.898Z,99846.34
2022-08-17T11:40:34.840Z,100189.91
2022-08-17T11:43:25.327Z,100213.66
2022-08-17T11:46:18.247Z,100152.09
2022-08-17T11:49:17.105Z,100198.34
2022-08-17T11:52:16.137Z,100549.75
2022-08-17T11:54:46.447Z,100561.00
2022-08-17T11:57:51.255Z,100588.91
2022-08-17T12:00:49.400Z,100562.72
2022-08-17T12:03:53.940Z,100564.03
2022-08-17T12:06:35.907Z,100594.78
2022-08-17T12:09:15.046Z,100604.63
2022-08-17T12:11:58.700Z,100621.06
2022-08-17T12:15:08.455Z,100622.81
2022-08-17T12:17:52.228Z,100645.63
2022-08-17T12:20:24.113Z,100643.66
2022-08-17T12:23:01.391Z,100642.38
2022-08-17T12:25:37.494Z,100642.91
2022-08-17T12:28:20.527Z,100643.38
2022-08-17T12:30:52.045Z,100643.66
2022-08-17T12:33:28.068Z,100650.50
2022-08-17T12:36:07.746Z,100663.28
2022-08-17T12:38:38.251Z,100664.66
2022-08-17T12:41:22.343Z,100664.22
2022-08-17T12:43:58.702Z,100669.19
2022-08-17T12:46:27.063Z,100669.66
2022-08-17T12:48:59.778Z,100647.13
2022-08-17T12:51:30.270Z,100671.47
2022-08-17T12:53:58.980Z,100657.78
2022-08-17T12:56:27.559Z,100645.84
2022-08-17T12:59:03.891Z,100651.72
2022-08-17T13:01:53.576Z,100640.22
2022-08-17T13:04:21.843Z,100618.38
2022-08-17T13:06:52.723Z,100631.19
2022-08-17T13:09:35.680Z,100625.31
2022-08-17T13:12:09.190Z,100613.03
2022-08-17T13:14:41.469Z,100630.03
2022-08-17T13:17:13.486Z,100652.56
2022-08-17T13:19:51.872Z,100649.25
2022-08-17T13:22:27.771Z,100621.09
2022-08-17T13:25:08.747Z,100606.91
2022-08-17T13:27:42.593Z,100561.91
2022-08-17T13:30:20.886Z,100622.13
2022-08-17T13:32:49.018Z,100630.13
2022-08-17T13:35:40.093Z,100641.97
2022-08-17T13:38:14.601Z,100632.69
2022-08-17T13:40:53.318Z,100620.53
2022-08-17T13:43:46.427Z,100581.66
2022-08-17T13:46:21.312Z,100584.59
2022-08-17T13:48:59.849Z,100560.84
2022-08-17T13:51:35.369Z,100524.50
2022-08-17T13:54:21.033Z,100409.88
2022-08-17T13:57:04.139Z,100284.75
2022-08-17T13:59:54.804Z,100075.41
2022-08-17T14:02:27.580Z,100041.31
2022-08-17T14:04:58.547Z,100083.91
2022-08-17T14:07:38.641Z,100121.72
2022-08-17T14:10:13.274Z,100290.22
2022-08-17T14:12:42.788Z,100271.28
2022-08-17T14:15:13.708Z,100374.38
2022-08-17T14:17:42.646Z,100457.03
2022-08-17T14:20:13.759Z,100626.25
2022-08-17T14:22:46.293Z,100818.00
2022-08-17T14:25:18.702Z,100938.56
2022-08-17T14:27:53.663Z,100882.75
2022-08-17T14:30:24.654Z,100840.13
2022-08-17T14:32:54.465Z,100835.53
2022-08-17T14:35:24.997Z,100839.19
2022-08-17T14:37:54.373Z,100844.19
2022-08-17T14:40:25.403Z,100837.75
2022-08-17T14:42:57.907Z,100807.19
2022-08-17T14:45:29.839Z,100825.22
2022-08-17T14:48:00.927Z,100824.19
2022-08-17T14:50:31.868Z,100828.66
2022-08-17T14:53:01.385Z,100833.72
2022-08-17T14:55:31.282Z,100834.91
2022-08-17T14:57:59.835Z,100814.97
2022-08-17T15:00:28.705Z,100842.50
2022-08-17T15:02:59.075Z,100835.03
2022-08-17T15:05:30.606Z,100821.81
2022-08-17T15:07:58.968Z,100805.22
2022-08-17T15:10:27.830Z,100795.63
2022-08-17T15:12:57.420Z,100779.88
2022-08-17T15:15:25.901Z,100769.88
2022-08-17T15:17:54.014Z,100756.69
2022-08-17T15:20:24.899Z,100742.88
2022-08-17T15:22:55.770Z,100731.50
2022-08-17T15:25:28.701Z,100735.16
2022-08-17T15:27:58.394Z,100719.75
2022-08-17T15:30:27.028Z,100716.22
2022-08-17T15:32:58.643Z,100683.47
2022-08-17T15:35:32.460Z,100692.03
2022-08-17T15:38:07.990Z,100674.19
2022-08-17T15:40:43.724Z,100659.63
2022-08-17T15:43:17.029Z,100659.75
2022-08-17T15:45:52.499Z,100643.63
2022-08-17T15:48:41.508Z,100641.31
2022-08-17T15:51:11.686Z,100635.94
2022-08-17T15:53:40.486Z,100665.88
2022-08-17T15:56:08.820Z,100662.56
2022-08-17T15:58:44.959Z,100650.84
2022-08-17T16:01:18.768Z,100643.25
2022-08-17T16:04:26.938Z,100626.63
2022-08-17T16:06:56.456Z,100663.06
2022-08-17T16:09:24.260Z,100651.69
2022-08-17T16:12:01.009Z,100638.63
2022-08-17T16:14:35.065Z,100648.53
2022-08-17T16:17:03.596Z,100655.72
2022-08-17T16:19:32.517Z,100661.97
2022-08-17T16:22:00.379Z,100659.16
2022-08-17T16:24:41.653Z,100658.56
2022-08-17T16:27:17.465Z,100656.59
2022-08-17T16:29:52.058Z,100634.47
2022-08-17T16:32:31.812Z,100641.53
2022-08-17T16:35:03.081Z,100651.19
2022-08-17T16:37:31.175Z,100656.69
2022-08-17T16:40:02.371Z,100633.22
2022-08-17T16:42:33.381Z,100640.94
2022-08-17T16:45:06.703Z,100632.97
2022-08-17T16:47:34.826Z,100634.56
2022-08-17T16:50:04.496Z,100620.25
2022-08-17T16:52:33.576Z,100625.50
2022-08-17T16:55:02.768Z,100620.50
2022-08-17T16:57:30.947Z,100614.38
2022-08-17T16:59:59.409Z,100611.47
2022-08-17T17:02:32.204Z,100603.38
2022-08-17T17:05:06.716Z,100602.53
2022-08-17T17:07:54.833Z,100594.94
2022-08-17T17:10:25.788Z,100597.03
2022-08-17T17:13:01.934Z,100605.44
2022-08-17T17:15:51.658Z,100600.19
2022-08-17T17:18:24.286Z,100608.94
2022-08-17T17:20:56.849Z,100597.44
2022-08-17T17:23:44.640Z,100589.91
2022-08-17T17:26:46.628Z,100576.06
2022-08-17T17:29:28.640Z,100561.91
2022-08-17T17:32:21.443Z,100549.81
2022-08-17T17:34:54.704Z,100554.09
2022-08-17T17:37:28.395Z,100558.94
2022-08-17T17:40:00.485Z,100558.84
2022-08-17T17:42:32.261Z,100560.31
2022-08-17T17:45:16.894Z,100555.69
2022-08-17T17:47:45.939Z,100563.97
2022-08-17T17:50:17.886Z,100550.50
2022-08-17T17:52:51.409Z,100557.59
2022-08-17T17:55:45.135Z,100567.94
2022-08-17T17:58:33.613Z,100557.06
2022-08-17T18:01:19.274Z,100557.53
2022-08-17T18:04:02.766Z,100551.91
2022-08-17T18:06:47.659Z,100563.25
2022-08-17T18:09:32.789Z,100566.53
2022-08-17T18:12:12.996Z,100559.69
2022-08-17T18:15:02.235Z,100570.06
2022-08-17T18:17:31.090Z,100579.44
2022-08-17T18:19:58.933Z,100586.06
2022-08-17T18:22:28.657Z,100589.41
2022-08-17T18:24:58.018Z,100586.09
2022-08-17T18:27:33.369Z,100592.44
2022-08-17T18:30:22.341Z,100590.13
2022-08-17T18:32:50.207Z,100587.44
2022-08-17T18:35:30.144Z,100587.06
2022-08-17T18:38:20.431Z,100576.72
2022-08-17T18:40:59.155Z,100591.31
2022-08-17T18:43:36.470Z,100595.19
2022-08-17T18:46:28.896Z,100600.75
2022-08-17T18:48:59.773Z,100605.38
2022-08-17T18:51:40.538Z,100618.88
2022-08-17T18:54:18.522Z,100617.09
2022-08-17T18:56:52.128Z,100623.72
2022-08-17T18:59:30.250Z,100625.22
2022-08-17T19:02:32.492Z,100622.00
2022-08-17T19:05:11.643Z,100619.00
2022-08-17T19:07:41.787Z,100630.91
2022-08-17T19:10:22.378Z,100639.81
2022-08-17T19:13:00.322Z,100633.09
2022-08-17T19:15:34.129Z,100629.47
2022-08-17T19:18:06.835Z,100635.25
2022-08-17T19:20:39.014Z,100620.28
2022-08-17T19:23:19.778Z,100638.38
2022-08-17T19:25:52.697Z,100639.56
2022-08-17T19:28:24.581Z,100628.44
2022-08-17T19:30:57.957Z,100629.31
2022-08-17T19:33:27.257Z,100632.94
2022-08-17T19:36:21.465Z,100632.59
2022-08-17T19:38:59.770Z,100637.00
2022-08-17T19:41:39.718Z,100636.56
2022-08-17T19:44:32.257Z,100648.66
2022-08-17T19:47:06.713Z,100651.47
2022-08-17T19:49:48.088Z,100638.63
2022-08-17T19:52:43.581Z,100652.97
2022-08-17T19:55:20.781Z,100653.44
2022-08-17T19:58:03.813Z,100651.50
2022-08-17T20:00:34.801Z,100641.75
2022-08-17T20:03:09.298Z,100650.16
2022-08-17T20:06:08.437Z,100651.94
2022-08-17T20:08:35.525Z,100647.59
2022-08-17T20:11:09.672Z,100641.81
2022-08-17T20:13:42.938Z,100658.31
2022-08-17T20:16:12.303Z,100656.81
2022-08-17T20:18:50.930Z,100681.25
2022-08-17T20:21:25.409Z,100696.50
2022-08-17T20:24:00.869Z,100696.13
2022-08-17T20:26:49.094Z,100698.50
2022-08-17T20:29:37.788Z,100681.75
2022-08-17T20:32:23.360Z,100708.03
2022-08-17T20:35:03.988Z,100694.97
2022-08-17T20:37:33.899Z,100687.44
2022-08-17T20:40:27.838Z,100683.69
2022-08-17T20:42:58.458Z,100699.34
2022-08-17T20:46:06.373Z,100704.59
2022-08-17T20:48:40.531Z,100705.47
2022-08-17T20:51:28.367Z,100700.53
2022-08-17T20:54:08.326Z,100699.66
2022-08-17T20:56:57.491Z,100684.53
2022-08-17T20:59:57.580Z,100705.66
2022-08-17T21:02:27.994Z,100698.38
2022-08-17T21:05:07.978Z,100700.56
2022-08-17T21:07:58.887Z,100717.31
2022-08-17T21:10:38.072Z,100718.28
2022-08-17T21:13:32.727Z,100711.84
2022-08-17T21:16:08.529Z,100716.47
2022-08-17T21:18:45.570Z,100710.13
2022-08-17T21:21:25.980Z,100719.16
2022-08-17T21:24:16.225Z,100714.66
2022-08-17T21:26:52.949Z,100705.50
2022-08-17T21:29:30.969Z,100701.66
2022-08-17T21:32:24.364Z,100696.94
2022-08-17T21:35:31.098Z,100711.84
2022-08-17T21:38:05.178Z,100715.91
2022-08-17T21:40:35.097Z,100714.31
2022-08-17T21:43:18.030Z,100694.25
2022-08-17T21:45:56.039Z,100706.69
2022-08-17T21:48:27.210Z,100704.13
2022-08-17T21:51:17.632Z,100691.03
2022-08-17T21:53:50.333Z,100695.44
2022-08-17T21:56:25.745Z,100691.69
2022-08-17T21:59:00.670Z,100697.91
2022-08-17T22:01:30.596Z,100698.75
2022-08-17T22:04:03.363Z,100706.91
2022-08-17T22:06:37.312Z,100706.16
2022-08-17T22:09:16.978Z,100694.84
2022-08-17T22:12:10.341Z,100690.81
2022-08-17T22:14:52.374Z,100690.81
2022-08-17T22:17:24.355Z,100682.56
2022-08-17T22:19:56.296Z,100683.53
2022-08-17T22:22:56.199Z,100682.56
2022-08-17T22:25:27.289Z,100685.31
2022-08-17T22:27:57.805Z,100694.84
2022-08-17T22:30:33.338Z,100694.69
2022-08-17T22:33:02.909Z,100698.22
2022-08-17T22:35:35.571Z,100695.75
2022-08-17T22:38:26.157Z,100697.69
2022-08-17T22:41:13.536Z,100703.06
2022-08-17T22:43:44.833Z,100694.94
2022-08-17T22:46:14.957Z,100704.59
2022-08-17T22:48:50.246Z,100709.50
2022-08-17T22:51:23.142Z,100702.63
2022-08-17T22:54:12.039Z,100709.31
2022-08-17T22:57:07.177Z,100694.09
2022-08-17T22:59:46.429Z,100701.16
2022-08-17T23:02:19.471Z,100712.00
2022-08-17T23:04:51.312Z,100711.47
2022-08-17T23:07:20.152Z,100715.31
2022-08-17T23:09:48.111Z,100719.59
2022-08-17T23:12:23.581Z,100711.38
2022-08-17T23:14:58.471Z,100712.13
2022-08-17T23:17:27.536Z,100716.63
2022-08-17T23:19:56.987Z,100709.81
2022-08-17T23:22:25.352Z,100717.47
2022-08-17T23:24:53.185Z,100715.88
2022-08-17T23:27:23.130Z,100713.94
2022-08-17T23:29:50.968Z,100706.31
2022-08-17T23:32:19.608Z,100700.31
2022-08-17T23:34:49.472Z,100705.47
2022-08-17T23:37:18.596Z,100698.59
2022-08-17T23:39:46.616Z,100699.25
2022-08-17T23:42:21.630Z,100702.34
2022-08-17T23:44:50.989Z,100691.53
2022-08-17T23:47:18.870Z,100689.69
2022-08-17T23:49:46.741Z,100682.94
2022-08-17T23:52:17.069Z,100672.66
2022-08-17T23:54:47.351Z,100686.81
2022-08-17T23:57:17.427Z,100691.94
2022-08-17T23:59:46.085Z,100687.34
